KLBF/LBF METAR and TAF weather

Enter ICAO airport designator
Station Type Date Time Source
KLBF METAR 2021/09/23 22:53 UTC NOAA

KLBF 232253Z AUTO 23003KT 10SM CLR 30/07 A2988 RMK AO2 SLP097 T03000072


Station Type Date Time Source
KLBF Decoded METAR 2021/09/23 22:53 UTC NOAA

NORTH PLATTE REGIONAL AIRPORT , NE, United States (KLBF) 41-07N 100-40W 847M
Sep 23, 2021 - 06:53 PM EDT / 2021.09.23 2253 UTC
Wind: from the SW (230 degrees) at 3 MPH (3 KT):0
Visibility: 10 mile(s):0
Sky conditions: clear
Temperature: 86.0 F (30.0 C)
Dew Point: 45.0 F (7.2 C)
Relative Humidity: 23%
Pressure (altimeter): 29.88 in. Hg (1011 hPa)
ob: KLBF 232253Z AUTO 23003KT 10SM CLR 30/07 A2988 RMK AO2 SLP097 T03000072
cycle: 23

Station Type Date Time Source
KLBF TAF 2021/09/23 18:22 UTC NOAA

TAF KLBF 231720Z 2318/2418 23010KT P6SM FEW250
FM232200 26010KT P6SM FEW250
FM240000 29009KT P6SM FEW250
FM240500 32007KT P6SM SCT250
FM241200 35008KT P6SM BKN150

Example: see airport list